Time;durP1;ratioP1;P1;durP2;ratioP2;P2;SDS_P1;SDS_P2;PMS_P1;PMS_P2;Temp;Humidity;BMP_temperature;BMP_pressure;BME280_temperature;BME280_humidity;BME280_pressure;Samples;Min_cycle;Max_cycle;Signal;HPM_P1;HPM_P2
2022/11/11 00:01:03;;;;;;;14.73;7.10;;;;;;;9.11;100.00;101669.06;4814774;29;20034;-78
2022/11/11 00:03:28;;;;;;;15.05;7.18;;;;;;;9.05;100.00;101665.38;4799486;29;20072;-78
2022/11/11 00:05:54;;;;;;;13.82;7.50;;;;;;;9.03;100.00;101667.59;4799273;29;20038;-78
2022/11/11 00:08:19;;;;;;;15.23;7.30;;;;;;;8.99;100.00;101669.19;4799525;29;20029;-78
2022/11/11 00:10:45;;;;;;;21.17;7.93;;;;;;;8.94;100.00;101661.66;4814371;29;20071;-79
2022/11/11 00:13:11;;;;;;;15.98;7.60;;;;;;;8.94;100.00;101667.19;4814236;29;20067;-78
2022/11/11 00:15:37;;;;;;;16.70;7.80;;;;;;;8.91;100.00;101670.47;4829294;29;20045;-78
2022/11/11 00:26:16;;;;;;;16.77;7.93;;;;;;;8.77;100.00;101657.22;4803994;29;20085;-79
2022/11/11 00:28:41;;;;;;;18.90;9.68;;;;;;;8.75;100.00;101651.94;4826150;29;20471;-78
2022/11/11 00:31:11;;;;;;;18.52;10.00;;;;;;;8.71;100.00;101657.13;4829500;29;20040;-79
2022/11/11 00:33:36;;;;;;;16.25;10.05;;;;;;;8.70;100.00;101655.47;4813956;29;20067;-79
2022/11/11 00:36:02;;;;;;;18.08;11.02;;;;;;;8.66;100.00;101648.78;4805155;29;20102;-78
2022/11/11 00:38:46;;;;;;;18.42;11.13;;;;;;;8.64;100.00;101662.03;4798643;29;20038;-78
2022/11/11 00:41:16;;;;;;;17.58;11.07;;;;;;;8.63;100.00;101662.28;4845414;29;20038;-78
2022/11/11 00:43:42;;;;;;;17.13;11.05;;;;;;;8.64;100.00;101661.19;4810772;29;20130;-78
2022/11/11 00:51:35;;;;;;;16.50;10.20;;;;;;;8.61;100.00;101662.53;4804086;29;20050;-78
2022/11/11 00:54:01;;;;;;;17.02;11.30;;;;;;;8.61;100.00;101659.78;4798849;29;20403;-78
2022/11/11 00:56:26;;;;;;;18.83;11.32;;;;;;;8.59;100.00;101661.13;4799020;29;20042;-78
2022/11/11 00:58:52;;;;;;;15.18;11.65;;;;;;;8.60;100.00;101655.31;4813831;29;20087;-78
2022/11/11 01:01:17;;;;;;;16.52;11.73;;;;;;;8.58;100.00;101651.97;4798687;29;20040;-79
2022/11/11 01:03:43;;;;;;;18.42;11.82;;;;;;;8.59;100.00;101661.94;4781005;29;20039;-78
2022/11/11 01:06:09;;;;;;;17.50;11.00;;;;;;;8.60;100.00;101662.78;4798648;29;20084;-78
2022/11/11 01:08:34;;;;;;;16.33;12.00;;;;;;;8.57;100.00;101664.13;4798470;29;20606;-78
2022/11/11 01:11:00;;;;;;;16.90;11.70;;;;;;;8.59;100.00;101677.72;4799030;29;20034;-78
2022/11/11 01:13:31;;;;;;;15.73;11.30;;;;;;;8.57;100.00;101666.88;4823025;29;20071;-78
2022/11/11 01:16:00;;;;;;;18.95;11.73;;;;;;;8.59;100.00;101669.41;4795297;29;20030;-78
2022/11/11 01:18:25;;;;;;;16.85;11.80;;;;;;;8.54;100.00;101669.34;4810459;29;20576;-78
2022/11/11 01:21:13;;;;;;;15.82;11.68;;;;;;;8.57;100.00;101669.66;4813555;29;20056;-78
2022/11/11 01:23:39;;;;;;;17.38;12.15;;;;;;;8.55;100.00;101673.78;4829308;29;20038;-78
2022/11/11 01:26:06;;;;;;;16.40;12.32;;;;;;;8.55;100.00;101677.38;4798577;29;20068;-78
2022/11/11 01:28:32;;;;;;;19.05;11.93;;;;;;;8.56;100.00;101681.84;4828176;29;20048;-78
2022/11/11 01:31:04;;;;;;;18.20;12.77;;;;;;;8.53;100.00;101681.50;4795509;29;20476;-78
2022/11/11 01:33:30;;;;;;;17.88;12.52;;;;;;;8.50;100.00;101678.16;4828428;29;20099;-78
2022/11/11 01:36:00;;;;;;;18.98;11.30;;;;;;;8.53;100.00;101687.03;4813065;29;20042;-78
2022/11/11 01:38:26;;;;;;;16.17;11.52;;;;;;;8.53;100.00;101685.13;4813629;29;20067;-78
2022/11/11 01:40:51;;;;;;;18.40;12.57;;;;;;;8.53;100.00;101685.13;4828225;29;20026;-78
2022/11/11 01:43:18;;;;;;;18.95;12.27;;;;;;;8.51;100.00;101681.75;4812929;29;20034;-78
2022/11/11 01:45:45;;;;;;;16.38;11.15;;;;;;;8.53;100.00;101696.19;4797842;29;20447;-79
2022/11/11 01:51:40;;;;;;;15.82;10.45;;;;;;;8.56;100.00;101695.69;4808939;29;20145;-78
2022/11/11 01:54:07;;;;;;;16.33;11.00;;;;;;;8.55;100.00;101693.16;4812809;29;20049;-78
2022/11/11 01:56:33;;;;;;;15.45;10.13;;;;;;;8.54;100.00;101689.53;4812835;29;20034;-78
2022/11/11 01:59:00;;;;;;;16.35;10.48;;;;;;;8.54;100.00;101689.53;4797810;29;20496;-78
2022/11/11 02:01:26;;;;;;;15.88;10.80;;;;;;;8.53;100.00;101690.66;4797758;29;20037;-78
2022/11/11 02:06:37;;;;;;;13.25;9.45;;;;;;;8.55;100.00;101682.91;4817674;29;20399;-78
2022/11/11 02:09:02;;;;;;;15.90;10.05;;;;;;;8.52;100.00;101677.88;4809908;29;20034;-78
2022/11/11 02:16:56;;;;;;;17.02;10.82;;;;;;;8.53;100.00;101671.28;4817098;29;20049;-78
2022/11/11 02:19:26;;;;;;;15.02;9.98;;;;;;;8.51;100.00;101676.22;4801235;29;20480;-78
2022/11/11 02:21:55;;;;;;;13.10;9.55;;;;;;;8.47;100.00;101673.13;4810659;29;20031;-78
2022/11/11 02:24:21;;;;;;;17.90;10.90;;;;;;;8.48;100.00;101671.19;4813022;29;20041;-78
2022/11/11 02:26:46;;;;;;;13.40;9.95;;;;;;;8.47;100.00;101670.34;4813152;29;20026;-78
2022/11/11 02:29:19;;;;;;;15.35;10.40;;;;;;;8.46;100.00;101659.50;4812661;29;20042;-78
2022/11/11 02:31:44;;;;;;;17.02;11.07;;;;;;;8.46;100.00;101662.28;4812784;29;20034;-78
2022/11/11 02:34:10;;;;;;;13.88;9.60;;;;;;;8.43;100.00;101665.56;4815048;29;20445;-78
2022/11/11 02:36:36;;;;;;;15.98;10.07;;;;;;;8.46;100.00;101667.81;4815713;29;20045;-78
2022/11/11 02:39:01;;;;;;;15.52;9.68;;;;;;;8.46;100.00;101665.03;4803511;29;20026;-78
2022/11/11 02:44:11;;;;;;;17.65;10.65;;;;;;;8.47;100.00;101663.97;4811726;29;20038;-79
2022/11/11 02:46:36;;;;;;;16.83;10.45;;;;;;;8.47;100.00;101658.44;4811778;29;20424;-78
2022/11/11 02:49:02;;;;;;;16.85;9.52;;;;;;;8.47;100.00;101656.50;4812411;29;20038;-78
2022/11/11 02:51:28;;;;;;;24.33;10.25;;;;;;;8.46;100.00;101659.50;4827783;29;20029;-78
2022/11/11 02:53:57;;;;;;;16.00;9.32;;;;;;;8.49;100.00;101661.78;4782341;29;20046;-78
2022/11/11 02:59:09;;;;;;;19.40;9.93;;;;;;;8.53;100.00;101651.88;4830214;29;20117;-79
2022/11/11 03:01:35;;;;;;;15.48;9.27;;;;;;;8.53;100.00;101651.88;4814259;29;20068;-78
2022/11/11 03:04:00;;;;;;;16.33;10.30;;;;;;;8.55;100.00;101649.69;4800526;29;20226;-78
2022/11/11 03:06:26;;;;;;;15.38;9.35;;;;;;;8.57;100.00;101653.03;4830531;29;20037;-78
2022/11/11 03:08:51;;;;;;;14.10;9.63;;;;;;;8.58;100.00;101651.97;4815754;29;20503;-78
2022/11/11 03:11:26;;;;;;;13.98;8.98;;;;;;;8.60;100.00;101647.00;4805713;29;20030;-78
2022/11/11 03:13:53;;;;;;;13.93;9.05;;;;;;;8.61;100.00;101648.69;4816595;29;20121;-78
2022/11/11 03:19:02;;;;;;;15.35;8.32;;;;;;;8.63;100.00;101640.94;4829545;29;20030;-78
2022/11/11 03:21:28;;;;;;;13.70;7.82;;;;;;;8.69;100.00;101645.50;4804481;29;20499;-78
2022/11/11 03:23:53;;;;;;;13.02;8.25;;;;;;;8.69;100.00;101642.72;4842484;29;20095;-78
2022/11/11 03:26:19;;;;;;;11.65;7.30;;;;;;;8.70;100.00;101649.94;4799977;29;20034;-78
2022/11/11 03:28:44;;;;;;;11.70;7.97;;;;;;;8.71;100.00;101642.47;4830008;29;20030;-78
2022/11/11 03:31:10;;;;;;;11.55;8.13;;;;;;;8.73;100.00;101643.88;4815364;29;20042;-78
2022/11/11 03:33:35;;;;;;;9.10;7.22;;;;;;;8.76;100.00;101647.25;4796852;29;20059;-78
2022/11/11 03:36:01;;;;;;;11.20;7.63;;;;;;;8.78;100.00;101645.91;4828288;29;20094;-78
2022/11/11 03:38:26;;;;;;;11.18;7.47;;;;;;;8.77;100.00;101638.66;4829940;29;20030;-78
2022/11/11 03:40:54;;;;;;;10.60;7.15;;;;;;;8.80;100.00;101634.56;4814959;29;20045;-78
2022/11/11 03:43:21;;;;;;;13.65;7.38;;;;;;;8.80;100.00;101629.84;4829842;29;20061;-78
2022/11/11 03:45:46;;;;;;;11.98;7.55;;;;;;;8.83;100.00;101629.34;4814900;29;20470;-78
2022/11/11 03:48:12;;;;;;;10.20;6.97;;;;;;;8.83;100.00;101636.81;4815072;29;20038;-78
2022/11/11 03:50:38;;;;;;;11.38;7.25;;;;;;;8.84;100.00;101636.56;4799340;29;20069;-78
2022/11/11 03:53:03;;;;;;;12.23;7.57;;;;;;;8.86;100.00;101641.84;4814637;29;20038;-78
2022/11/11 03:55:29;;;;;;;11.43;7.20;;;;;;;8.89;100.00;101641.34;4799667;29;20066;-78
2022/11/11 03:57:54;;;;;;;10.40;6.97;;;;;;;8.89;100.00;101638.59;4814511;29;20034;-78
2022/11/11 04:00:22;;;;;;;11.82;7.50;;;;;;;8.91;100.00;101633.59;4829809;29;20033;-78
2022/11/11 04:11:09;;;;;;;11.90;7.60;;;;;;;8.95;100.00;101638.38;4805442;29;20064;-78
2022/11/11 04:16:19;;;;;;;12.25;7.32;;;;;;;8.99;100.00;101637.88;4803828;29;20037;-78
2022/11/11 04:21:43;;;;;;;11.70;7.05;;;;;;;9.01;100.00;101628.22;4818709;29;20041;-78
2022/11/11 04:27:08;;;;;;;11.27;6.65;;;;;;;9.03;100.00;101630.75;4830747;29;20046;-78
2022/11/11 04:29:33;;;;;;;9.52;6.50;;;;;;;9.04;100.00;101633.22;4829273;29;20064;-78
2022/11/11 04:34:52;;;;;;;9.27;6.00;;;;;;;9.04;100.00;101636.00;4825320;29;20048;-78
2022/11/11 04:37:18;;;;;;;9.45;5.70;;;;;;;9.04;100.00;101632.41;4828923;29;20069;-78
2022/11/11 04:42:28;;;;;;;9.73;5.82;;;;;;;9.01;100.00;101642.06;4837609;29;20066;-78
2022/11/11 04:47:37;;;;;;;7.57;5.32;;;;;;;9.03;100.00;101639.06;4816003;29;20041;-78
2022/11/11 04:50:03;;;;;;;6.82;4.85;;;;;;;9.03;100.00;101647.38;4828997;29;20057;-78
2022/11/11 04:52:29;;;;;;;6.95;5.00;;;;;;;9.01;100.00;101639.28;4813447;29;20104;-78
2022/11/11 04:57:45;;;;;;;9.00;5.90;;;;;;;9.05;100.00;101643.22;4831411;29;20037;-78
2022/11/11 05:00:13;;;;;;;9.27;5.10;;;;;;;9.03;100.00;101639.88;4813812;29;20063;-78
2022/11/11 05:05:23;;;;;;;7.53;5.03;;;;;;;9.07;100.00;101641.03;4831322;29;20026;-78
2022/11/11 05:10:32;;;;;;;7.15;5.05;;;;;;;9.06;100.00;101639.38;4831215;29;20052;-78
2022/11/11 05:21:19;;;;;;;9.20;5.60;;;;;;;9.07;100.00;101645.75;4798197;29;20026;-78
2022/11/11 05:21:21;;;;;;;7.32;4.90;;;;;;;9.05;100.00;101637.66;4808219;29;20578;-78
2022/11/11 05:26:32;;;;;;;8.00;5.32;;;;;;;9.04;100.00;101636.00;4818518;29;20089;-78
2022/11/11 05:28:57;;;;;;;8.80;5.45;;;;;;;9.04;100.00;101641.53;4797819;29;20526;-78
2022/11/11 05:31:23;;;;;;;7.32;5.22;;;;;;;9.04;100.00;101641.53;4813423;29;20042;-78
2022/11/11 05:33:48;;;;;;;8.45;5.22;;;;;;;9.06;100.00;101639.38;4813317;29;20069;-78
2022/11/11 05:36:14;;;;;;;9.15;5.25;;;;;;;9.05;100.00;101643.22;4804154;29;20030;-78
2022/11/11 05:38:39;;;;;;;8.07;5.60;;;;;;;9.06;100.00;101647.69;4813214;29;20445;-78
2022/11/11 05:41:05;;;;;;;7.90;5.50;;;;;;;9.07;100.00;101643.81;4828424;29;20030;-78
2022/11/11 05:43:31;;;;;;;7.53;5.03;;;;;;;9.06;100.00;101635.75;4797509;29;20044;-78
2022/11/11 05:45:56;;;;;;;9.23;5.90;;;;;;;9.06;100.00;101638.53;4813256;29;20038;-78
2022/11/11 05:48:22;;;;;;;10.32;6.32;;;;;;;9.06;100.00;101633.81;4828413;29;20034;-79
2022/11/11 05:50:47;;;;;;;10.95;6.47;;;;;;;9.08;100.00;101636.31;4809725;29;20103;-78
2022/11/11 05:53:13;;;;;;;8.93;5.80;;;;;;;9.07;100.00;101643.81;4795310;29;20038;-78
2022/11/11 05:55:38;;;;;;;11.10;6.22;;;;;;;9.08;100.00;101642.72;4804240;29;20061;-78
2022/11/11 05:58:04;;;;;;;11.43;6.55;;;;;;;9.08;100.00;101637.19;4794691;29;20095;-78
2022/11/11 06:00:29;;;;;;;10.40;6.43;;;;;;;9.09;100.00;101649.09;4810031;29;20045;-78
2022/11/11 06:03:01;;;;;;;9.45;6.82;;;;;;;9.11;100.00;101630.25;4807062;29;20103;-78
2022/11/11 06:05:26;;;;;;;8.57;5.88;;;;;;;9.09;100.00;101636.09;4795077;29;20035;-78
2022/11/11 06:07:53;;;;;;;8.98;5.97;;;;;;;9.08;100.00;101625.25;4786938;29;20034;-78
2022/11/11 06:10:31;;;;;;;8.70;6.32;;;;;;;9.10;100.00;101634.97;4815096;29;20163;-78
2022/11/11 06:13:09;;;;;;;11.73;6.50;;;;;;;9.08;100.00;101628.88;4782814;29;20046;-78
2022/11/11 06:15:35;;;;;;;10.98;6.60;;;;;;;9.07;100.00;101629.94;4796095;29;20031;-78
2022/11/11 06:18:02;;;;;;;10.13;6.25;;;;;;;9.07;100.00;101629.13;4801597;29;20378;-78
2022/11/11 06:20:27;;;;;;;8.63;5.78;;;;;;;9.07;100.00;101624.41;4794745;29;20046;-78
2022/11/11 06:22:55;;;;;;;9.25;6.40;;;;;;;9.08;100.00;101622.47;4795029;29;20045;-78
2022/11/11 06:28:15;;;;;;;12.43;7.97;;;;;;;9.09;100.00;101633.31;4800366;29;20515;-78
2022/11/11 06:30:41;;;;;;;11.10;7.30;;;;;;;9.09;100.00;101627.75;4795090;29;20030;-78
2022/11/11 06:33:07;;;;;;;10.77;6.80;;;;;;;9.09;100.00;101615.84;4779757;29;20035;-78
2022/11/11 06:35:36;;;;;;;11.45;7.07;;;;;;;9.08;100.00;101623.34;4792030;29;20035;-78
2022/11/11 06:38:02;;;;;;;11.90;7.20;;;;;;;9.11;100.00;101624.72;4808362;29;20038;-78
2022/11/11 06:40:29;;;;;;;13.85;7.75;;;;;;;9.10;100.00;101637.75;4813111;29;20042;-78
2022/11/11 06:42:55;;;;;;;11.18;7.22;;;;;;;9.08;100.00;101626.09;4797717;29;20436;-79
2022/11/11 06:45:20;;;;;;;10.57;7.18;;;;;;;9.07;100.00;101629.94;4794751;29;20051;-78
2022/11/11 06:47:46;;;;;;;11.10;7.32;;;;;;;9.08;100.00;101637.19;4797834;29;20038;-78
2022/11/11 06:50:11;;;;;;;10.63;6.80;;;;;;;9.10;100.00;101631.38;4827876;29;20638;-79
2022/11/11 06:52:37;;;;;;;11.63;7.47;;;;;;;9.11;100.00;101630.25;4797793;29;20038;-78
2022/11/11 06:55:02;;;;;;;10.88;7.95;;;;;;;9.11;100.00;101639.44;4797763;29;20042;-78
2022/11/11 06:57:28;;;;;;;11.15;7.50;;;;;;;9.11;100.00;101638.56;4797422;29;20113;-78
2022/11/11 06:59:53;;;;;;;13.55;7.60;;;;;;;9.11;100.00;101642.22;4797940;29;20491;-78
2022/11/11 07:02:19;;;;;;;11.43;7.68;;;;;;;9.10;100.00;101645.22;4792678;29;20039;-78
2022/11/11 07:04:44;;;;;;;12.52;7.88;;;;;;;9.12;100.00;101645.81;4782789;29;20042;-78
2022/11/11 07:07:10;;;;;;;11.00;7.47;;;;;;;9.12;100.00;101643.88;4812449;29;20034;-78
2022/11/11 07:09:35;;;;;;;11.18;7.63;;;;;;;9.09;100.00;101644.41;4797853;29;20086;-79
2022/11/11 07:12:01;;;;;;;11.10;7.47;;;;;;;9.09;100.00;101633.31;4795989;29;20038;-78
2022/11/11 07:14:26;;;;;;;10.50;7.38;;;;;;;9.09;100.00;101638.84;4797182;29;20094;-78
2022/11/11 07:16:52;;;;;;;11.88;8.02;;;;;;;9.06;100.00;101636.59;4797267;29;20041;-78
2022/11/11 07:19:17;;;;;;;10.93;7.90;;;;;;;9.05;100.00;101642.38;4767621;29;20117;-78
2022/11/11 07:21:43;;;;;;;10.65;7.28;;;;;;;9.08;100.00;101644.63;4812348;29;20035;-78
2022/11/11 07:24:08;;;;;;;12.27;8.63;;;;;;;9.05;100.00;101636.84;4797217;29;20026;-78
2022/11/11 07:26:34;;;;;;;14.02;9.15;;;;;;;9.06;100.00;101652.38;4770837;29;20039;-78
2022/11/11 07:28:59;;;;;;;11.60;8.07;;;;;;;9.04;100.00;101652.63;4812057;29;20092;-78
2022/11/11 07:31:26;;;;;;;13.93;9.13;;;;;;;9.03;100.00;101648.19;4797398;29;20671;-78
2022/11/11 07:33:51;;;;;;;14.48;9.00;;;;;;;9.01;100.00;101653.16;4797174;29;20038;-78
2022/11/11 07:36:17;;;;;;;11.52;8.85;;;;;;;9.02;100.00;101663.13;4812195;29;20090;-78
2022/11/11 07:38:42;;;;;;;13.18;9.07;;;;;;;9.01;100.00;101658.69;4782677;29;20035;-78
2022/11/11 07:41:08;;;;;;;12.32;8.63;;;;;;;9.01;100.00;101650.38;4791557;29;20026;-78
2022/11/11 07:43:33;;;;;;;13.40;9.10;;;;;;;8.98;100.00;101648.13;4811686;29;20046;-78
2022/11/11 07:45:59;;;;;;;14.23;9.35;;;;;;;8.97;100.00;101649.22;4797094;29;20047;-78
2022/11/11 07:48:24;;;;;;;16.08;10.18;;;;;;;8.96;100.00;101653.06;4827092;29;20038;-78
2022/11/11 07:50:53;;;;;;;14.90;10.38;;;;;;;8.94;100.00;101652.47;4796848;29;20054;-78
2022/11/11 07:53:19;;;;;;;15.75;10.30;;;;;;;8.91;100.00;101656.63;4781973;29;20146;-78
2022/11/11 07:55:45;;;;;;;14.07;9.93;;;;;;;8.90;100.00;101662.41;4824995;29;20050;-78
2022/11/11 07:58:11;;;;;;;15.25;10.18;;;;;;;8.90;100.00;101667.94;4792520;29;20037;-78
2022/11/11 08:00:36;;;;;;;14.68;10.20;;;;;;;8.89;100.00;101671.81;4796891;29;20030;-77
2022/11/11 08:03:02;;;;;;;16.63;11.30;;;;;;;8.85;100.00;101671.47;4782099;29;20038;-78
2022/11/11 08:05:27;;;;;;;14.38;10.18;;;;;;;8.83;100.00;101667.28;4796815;29;20592;-77
2022/11/11 08:07:53;;;;;;;15.05;10.32;;;;;;;8.82;100.00;101666.44;4782087;29;20099;-78
2022/11/11 08:10:18;;;;;;;16.25;10.70;;;;;;;8.78;100.00;101673.59;4781864;29;20591;-77
2022/11/11 08:15:28;;;;;;;15.63;9.60;;;;;;;8.73;100.00;101681.81;4798470;29;20041;-78
2022/11/11 08:17:54;;;;;;;12.20;9.05;;;;;;;8.73;100.00;101682.66;4788894;29;20695;-78
2022/11/11 08:20:19;;;;;;;12.48;9.50;;;;;;;8.73;100.00;101679.88;4822079;29;20045;-78
2022/11/11 08:22:45;;;;;;;13.27;9.80;;;;;;;8.69;100.00;101688.94;4811684;29;20046;-78
2022/11/11 08:25:13;;;;;;;13.48;9.93;;;;;;;8.72;100.00;101689.31;4796819;29;20479;-79
2022/11/11 08:27:38;;;;;;;13.85;9.93;;;;;;;8.70;100.00;101691.47;4781737;29;20054;-78
2022/11/11 08:30:05;;;;;;;12.98;9.93;;;;;;;8.72;100.00;101686.53;4781330;29;20042;-78
2022/11/11 08:32:30;;;;;;;13.18;9.32;;;;;;;8.73;100.00;101693.75;4796164;29;20042;-78
2022/11/11 08:34:56;;;;;;;13.40;9.57;;;;;;;8.72;100.00;101694.84;4786881;29;20038;-78
2022/11/11 08:37:21;;;;;;;12.07;9.25;;;;;;;8.73;100.00;101690.13;4796135;29;20057;-78
2022/11/11 08:39:47;;;;;;;12.77;9.35;;;;;;;8.73;100.00;101698.44;4827345;29;20093;-78
2022/11/11 08:42:12;;;;;;;12.60;8.90;;;;;;;8.73;100.00;101702.03;4796007;29;20553;-78
2022/11/11 08:44:38;;;;;;;11.55;9.20;;;;;;;8.75;100.00;101712.88;4795549;29;20037;-77
2022/11/11 08:47:03;;;;;;;11.88;8.88;;;;;;;8.76;100.00;101710.94;4810945;29;20042;-77
2022/11/11 08:49:29;;;;;;;11.43;8.68;;;;;;;8.79;100.00;101719.59;4814927;29;20069;-76
2022/11/11 08:51:54;;;;;;;13.18;9.20;;;;;;;8.77;100.00;101724.53;4814131;29;20034;-77
2022/11/11 08:54:20;;;;;;;12.35;9.02;;;;;;;8.79;100.00;101729.84;4813641;29;20033;-77
2022/11/11 08:56:45;;;;;;;12.30;8.60;;;;;;;8.80;100.00;101737.03;4844665;29;20045;-77
2022/11/11 08:59:11;;;;;;;12.45;8.23;;;;;;;8.80;100.00;101737.88;4828218;29;20030;-77
2022/11/11 09:01:36;;;;;;;11.35;8.65;;;;;;;8.80;100.00;101739.81;4828978;29;20432;-77
2022/11/11 09:04:02;;;;;;;13.18;9.20;;;;;;;8.80;100.00;101740.66;4813654;29;20045;-77
2022/11/11 09:06:28;;;;;;;12.68;8.63;;;;;;;8.79;100.00;101735.38;4828906;29;20036;-77
2022/11/11 09:08:53;;;;;;;13.70;8.73;;;;;;;8.81;100.00;101742.34;4810713;29;20029;-77
2022/11/11 09:11:19;;;;;;;13.15;9.50;;;;;;;8.82;100.00;101748.72;4813087;29;20498;-77
2022/11/11 09:13:46;;;;;;;12.27;9.13;;;;;;;8.82;100.00;101749.53;4813360;29;20050;-77
2022/11/11 09:16:11;;;;;;;13.02;8.68;;;;;;;8.82;100.00;101743.19;4828706;29;20445;-77
2022/11/11 09:18:37;;;;;;;12.18;8.60;;;;;;;8.82;100.00;101744.00;4783572;29;20055;-76
2022/11/11 09:21:02;;;;;;;12.45;8.82;;;;;;;8.81;100.00;101742.34;4829196;29;20110;-76
2022/11/11 09:23:28;;;;;;;13.02;8.20;;;;;;;8.82;100.00;101744.00;4798353;29;20029;-76
2022/11/11 09:25:54;;;;;;;13.07;8.90;;;;;;;8.86;100.00;101752.66;4828054;29;20045;-77
2022/11/11 09:28:19;;;;;;;12.75;8.88;;;;;;;8.85;100.00;101760.13;4813710;29;20079;-77
2022/11/11 09:30:45;;;;;;;13.10;9.45;;;;;;;8.88;100.00;101748.53;4813311;29;20037;-77
2022/11/11 09:33:11;;;;;;;14.07;8.90;;;;;;;8.90;100.00;101751.06;4828277;29;20441;-78
2022/11/11 09:35:39;;;;;;;13.38;8.75;;;;;;;8.92;100.00;101768.28;4812058;29;20106;-77
2022/11/11 09:38:04;;;;;;;14.30;9.70;;;;;;;8.92;100.00;101762.75;4809326;29;20132;-77
2022/11/11 09:40:52;;;;;;;14.40;10.18;;;;;;;8.94;100.00;101768.84;4828675;29;20037;-77
2022/11/11 09:43:23;;;;;;;13.95;9.23;;;;;;;8.98;100.00;101770.03;4799781;29;20082;-76
2022/11/11 09:45:56;;;;;;;18.15;9.63;;;;;;;8.98;100.00;101769.22;4810204;29;20030;-77
2022/11/11 09:48:40;;;;;;;;;;;;;;;8.99;100.00;101776.41;4817040;29;20034;-77
2022/11/11 09:51:08;;;;;;;17.17;9.52;;;;;;;8.99;100.00;101763.38;4841751;29;20297;-77
2022/11/11 09:53:36;;;;;;;17.55;11.52;;;;;;;9.02;100.00;101765.66;4813364;29;20376;-77
2022/11/11 09:56:05;;;;;;;18.95;10.38;;;;;;;9.05;100.00;101767.91;4828258;29;20045;-77
2022/11/11 09:58:33;;;;;;;19.15;10.85;;;;;;;9.10;100.00;101761.63;4813065;29;20475;-77
2022/11/11 10:01:08;;;;;;;16.83;9.98;;;;;;;9.11;100.00;101761.38;4813329;29;20525;-77
2022/11/11 10:03:35;;;;;;;17.52;10.68;;;;;;;9.11;100.00;101755.84;4813126;29;20034;-77
2022/11/11 10:06:20;;;;;;;15.52;11.27;;;;;;;9.15;100.00;101757.00;4813509;29;20058;-77
2022/11/11 10:09:03;;;;;;;17.67;11.25;;;;;;;9.15;100.00;101759.78;4827091;29;20102;-77
2022/11/11 10:11:37;;;;;;;;;;;;;;;9.19;100.00;101765.63;4846697;29;20025;-77
2022/11/11 10:14:03;;;;;;;17.83;10.68;;;;;;;9.18;100.00;101758.41;4846834;29;19912;-77
2022/11/11 10:16:59;;;;;;;16.88;10.48;;;;;;;9.21;100.00;101757.06;4831495;29;20049;-77
2022/11/11 10:19:29;;;;;;;18.83;11.82;;;;;;;9.22;100.00;101758.75;4820364;29;20046;-77
2022/11/11 10:21:59;;;;;;;18.80;11.65;;;;;;;9.23;100.00;101768.75;4801747;29;20050;-77
2022/11/11 10:24:37;;;;;;;16.42;10.68;;;;;;;9.26;100.00;101765.47;4815725;29;20040;-76
2022/11/11 10:27:13;;;;;;;17.80;10.48;;;;;;;9.24;100.00;101771.25;4801164;29;20049;-78
2022/11/11 10:29:44;;;;;;;15.13;9.63;;;;;;;9.28;100.00;101760.53;4816454;29;20046;-78
2022/11/11 10:32:16;;;;;;;15.10;10.05;;;;;;;9.30;100.00;101761.09;4808338;29;20033;-78
2022/11/11 10:34:41;;;;;;;15.27;9.95;;;;;;;9.32;100.00;101765.28;4815708;29;20034;-78
2022/11/11 10:37:24;;;;;;;16.88;9.63;;;;;;;9.38;100.00;101757.88;4801283;29;20086;-78
2022/11/11 10:40:09;;;;;;;15.30;9.88;;;;;;;9.39;100.00;101759.56;4801413;29;20032;-78
2022/11/11 10:42:35;;;;;;;14.77;10.25;;;;;;;9.45;100.00;101760.47;4840196;29;20145;-78
2022/11/11 10:45:00;;;;;;;16.27;10.18;;;;;;;9.47;100.00;101759.13;4824086;29;20067;-78
2022/11/11 10:47:35;;;;;;;16.00;9.80;;;;;;;9.48;100.00;101757.19;4801025;29;20042;-78
2022/11/11 10:50:31;;;;;;;13.52;9.23;;;;;;;9.55;100.00;101757.81;4835115;29;20065;-78
2022/11/11 10:53:17;;;;;;;14.00;9.10;;;;;;;9.57;100.00;101752.88;4830041;29;20406;-78
2022/11/11 10:56:04;;;;;;;11.43;8.02;;;;;;;9.63;100.00;101761.00;4802452;29;20060;-79
2022/11/11 10:58:33;;;;;;;14.13;9.90;;;;;;;9.72;100.00;101760.53;4832959;29;20433;-78
2022/11/11 11:00:59;;;;;;;14.60;9.95;;;;;;;9.75;100.00;101757.25;4800522;29;20034;-79
2022/11/11 11:03:31;;;;;;;14.10;9.95;;;;;;;9.79;100.00;101759.25;4811701;29;20046;-78
2022/11/11 11:05:58;;;;;;;15.85;10.57;;;;;;;9.83;100.00;101756.78;4814043;29;20038;-78
2022/11/11 11:08:28;;;;;;;15.52;9.70;;;;;;;9.86;100.00;101756.28;4799504;29;20037;-78
2022/11/11 11:10:58;;;;;;;18.27;11.45;;;;;;;9.89;100.00;101755.78;4812204;29;20072;-77
2022/11/11 11:13:44;;;;;;;15.50;9.68;;;;;;;9.92;100.00;101760.81;4806604;29;20038;-77
2022/11/11 11:16:23;;;;;;;16.00;10.27;;;;;;;9.94;100.00;101755.81;4824303;29;20026;-77
2022/11/11 11:19:17;;;;;;;16.30;9.95;;;;;;;9.97;100.00;101754.47;4802531;29;20035;-77
2022/11/11 11:21:52;;;;;;;14.98;9.38;;;;;;;9.97;100.00;101749.78;4839835;29;20049;-77
2022/11/11 11:24:32;;;;;;;15.98;9.88;;;;;;;9.99;100.00;101752.28;4814699;29;20034;-77
2022/11/11 11:26:59;;;;;;;14.80;10.35;;;;;;;9.98;100.00;101740.34;4845485;29;20026;-77
2022/11/11 11:29:35;;;;;;;14.88;9.93;;;;;;;9.95;100.00;101745.59;4814873;29;20045;-77
2022/11/11 11:32:23;;;;;;;14.70;10.65;;;;;;;9.94;100.00;101738.34;4830317;29;20029;-77
2022/11/11 11:34:52;;;;;;;15.95;9.48;;;;;;;9.94;100.00;101730.84;4845381;29;20498;-77
2022/11/11 11:37:20;;;;;;;13.73;9.07;;;;;;;9.95;100.00;101728.94;4826505;29;20082;-77
2022/11/11 11:39:45;;;;;;;12.93;9.20;;;;;;;9.95;100.00;101713.13;4829924;29;20038;-77
2022/11/11 11:42:34;;;;;;;15.77;9.43;;;;;;;9.92;100.00;101708.09;4813109;29;20041;-77
2022/11/11 11:45:23;;;;;;;13.95;9.35;;;;;;;9.93;100.00;101698.66;4845746;29;20038;-77
2022/11/11 11:48:04;;;;;;;14.52;9.65;;;;;;;9.98;100.00;101701.50;4846576;29;20128;-77
2022/11/11 11:50:38;;;;;;;13.52;8.38;;;;;;;10.00;100.00;101701.22;4817452;29;20069;-77
2022/11/11 11:53:24;;;;;;;16.27;9.60;;;;;;;10.02;100.00;101699.84;4827703;29;20046;-77
2022/11/11 11:56:35;;;;;;;14.10;9.30;;;;;;;10.09;100.00;101698.84;4811571;29;20084;-78
2022/11/11 11:59:07;;;;;;;14.23;9.48;;;;;;;10.13;100.00;101700.81;4810980;29;20121;-77
2022/11/11 12:01:32;;;;;;;15.10;9.40;;;;;;;10.20;100.00;101692.28;4811413;29;20038;-77
2022/11/11 12:04:39;;;;;;;12.73;8.77;;;;;;;10.23;100.00;101692.59;4822920;29;20662;-77
2022/11/11 12:07:07;;;;;;;15.32;9.77;;;;;;;10.27;100.00;101692.91;4796210;29;20050;-77
2022/11/11 12:10:14;;;;;;;15.80;9.25;;;;;;;10.38;100.00;101691.06;4826281;29;20043;-77
2022/11/11 12:13:02;;;;;;;13.10;9.15;;;;;;;10.41;100.00;101694.16;4810661;29;20049;-77
2022/11/11 12:15:30;;;;;;;15.32;9.68;;;;;;;10.47;100.00;101681.16;4781254;29;20572;-78
2022/11/11 12:18:32;;;;;;;16.58;9.73;;;;;;;10.50;100.00;101675.06;4794977;29;20049;-78
2022/11/11 12:21:14;;;;;;;10.50;6.95;;;;;;;10.53;100.00;101674.56;4814892;29;20043;-78
2022/11/11 12:24:06;;;;;;;13.50;9.82;;;;;;;10.56;100.00;101673.16;4827352;29;20091;-77
2022/11/11 12:26:53;;;;;;;16.13;10.27;;;;;;;10.59;100.00;101661.53;4831807;29;20047;-77
2022/11/11 12:29:42;;;;;;;15.25;10.35;;;;;;;10.63;100.00;101657.13;4807177;29;20034;-77
2022/11/11 12:32:38;;;;;;;13.40;9.25;;;;;;;10.62;100.00;101656.28;4803847;29;20066;-77
2022/11/11 12:35:32;;;;;;;15.05;9.65;;;;;;;10.63;100.00;101654.34;4810257;29;20046;-77
2022/11/11 12:38:30;;;;;;;16.48;11.13;;;;;;;10.64;100.00;101664.34;4810954;29;20106;-77
2022/11/11 12:41:05;;;;;;;15.13;10.18;;;;;;;10.65;100.00;101652.13;4806788;29;20045;-77
2022/11/11 12:43:59;;;;;;;15.75;10.20;;;;;;;10.65;100.00;101644.63;4794025;29;20052;-77
2022/11/11 12:47:14;;;;;;;14.18;10.00;;;;;;;10.64;100.00;101636.56;4804426;29;20090;-77
2022/11/11 12:49:45;;;;;;;14.13;9.63;;;;;;;10.67;100.00;101633.25;4775400;29;20090;-77